Time;durP1;ratioP1;P1;durP2;ratioP2;P2;SDS_P1;SDS_P2;PMS_P1;PMS_P2;Temp;Humidity;BMP_temperature;BMP_pressure;BME280_temperature;BME280_humidity;BME280_pressure;Samples;Min_cycle;Max_cycle;Signal;HPM_P1;HPM_P2
2023/09/24 00:00:55;;;;;;;8.30;3.80;;;14.40;1.00;;;;;;5103263;28;20167;-82
2023/09/24 00:03:20;;;;;;;6.00;3.43;;;14.20;1.00;;;;;;5099705;28;20637;-83
2023/09/24 00:05:46;;;;;;;5.93;3.70;;;14.10;1.00;;;;;;5093616;28;20207;-82
2023/09/24 00:08:12;;;;;;;5.57;3.17;;;14.00;3.00;;;;;;5094531;28;20679;-82
2023/09/24 00:10:37;;;;;;;6.33;3.00;;;14.00;6.00;;;;;;5095468;28;20165;-81
2023/09/24 00:13:03;;;;;;;8.80;3.63;;;14.00;8.20;;;;;;5095268;28;20172;-83
2023/09/24 00:15:32;;;;;;;9.03;3.77;;;14.10;6.70;;;;;;5094707;28;20177;-84
2023/09/24 00:18:00;;;;;;;7.87;3.60;;;14.10;4.80;;;;;;5094892;28;20179;-82
2023/09/24 00:20:26;;;;;;;7.97;3.63;;;14.20;1.00;;;;;;5093869;28;20656;-83
2023/09/24 00:22:52;;;;;;;8.40;3.33;;;14.20;1.00;;;;;;5093858;28;20171;-83
2023/09/24 00:25:17;;;;;;;6.43;3.43;;;14.20;1.00;;;;;;5093129;28;20180;-83
2023/09/24 00:27:44;;;;;;;7.73;3.93;;;14.20;1.00;;;;;;5092661;28;20203;-83
2023/09/24 00:30:13;;;;;;;7.13;3.80;;;14.20;1.00;;;;;;5095101;28;20204;-81
2023/09/24 00:32:38;;;;;;;8.43;3.50;;;14.20;1.00;;;;;;5094138;28;20264;-82
2023/09/24 00:35:05;;;;;;;7.90;3.77;;;14.20;1.00;;;;;;5092072;28;20209;-81
2023/09/24 00:37:32;;;;;;;9.27;3.80;;;14.30;1.00;;;;;;5095245;28;20204;-80
2023/09/24 00:39:59;;;;;;;7.93;3.87;;;14.30;1.00;;;;;;5097235;28;20632;-82
2023/09/24 00:42:27;;;;;;;8.47;3.70;;;14.30;1.00;;;;;;5095920;28;20174;-80
2023/09/24 00:44:54;;;;;;;6.60;3.40;;;14.30;1.00;;;;;;5095387;28;20170;-82
2023/09/24 00:47:22;;;;;;;7.17;3.40;;;14.20;1.00;;;;;;5094353;28;20204;-82
2023/09/24 00:49:48;;;;;;;5.50;3.43;;;14.20;1.00;;;;;;5094954;28;20185;-81
2023/09/24 00:52:15;;;;;;;5.90;3.50;;;14.10;1.00;;;;;;5095114;28;20195;-81
2023/09/24 00:54:41;;;;;;;9.40;4.00;;;14.10;1.00;;;;;;5094956;28;20181;-81
2023/09/24 00:57:07;;;;;;;7.20;3.93;;;14.20;1.00;;;;;;5097603;28;20172;-82
2023/09/24 00:59:33;;;;;;;6.67;3.63;;;13.90;1.00;;;;;;5095254;28;20221;-81
2023/09/24 01:01:59;;;;;;;6.00;3.67;;;13.90;2.70;;;;;;5095609;28;20168;-81
2023/09/24 01:04:25;;;;;;;8.03;3.37;;;13.90;7.90;;;;;;5095034;28;20191;-81
2023/09/24 01:06:54;;;;;;;8.83;3.83;;;13.80;11.10;;;;;;5093455;28;20682;-81
2023/09/24 01:09:21;;;;;;;6.57;3.93;;;13.90;12.00;;;;;;5094287;28;20163;-81
2023/09/24 01:11:54;;;;;;;10.03;4.07;;;13.80;12.20;;;;;;5093608;28;20171;-82
2023/09/24 01:14:20;;;;;;;9.07;3.77;;;13.90;12.60;;;;;;5104069;28;20168;-81
2023/09/24 01:16:46;;;;;;;7.70;3.60;;;13.90;7.90;;;;;;5105885;28;20264;-82
2023/09/24 01:19:12;;;;;;;8.60;3.73;;;14.00;6.10;;;;;;5103750;28;20171;-81
2023/09/24 01:21:38;;;;;;;8.03;3.67;;;13.90;7.50;;;;;;5098268;28;20260;-81
2023/09/24 01:24:06;;;;;;;8.60;3.60;;;13.90;8.50;;;;;;5103148;28;20236;-82
2023/09/24 01:26:34;;;;;;;8.07;3.30;;;13.90;9.80;;;;;;5106154;28;20212;-81
2023/09/24 01:29:07;;;;;;;7.60;3.70;;;13.90;4.40;;;;;;5101270;28;20173;-80
2023/09/24 01:31:36;;;;;;;5.67;3.33;;;13.90;6.10;;;;;;5093090;28;20171;-82
2023/09/24 01:34:05;;;;;;;7.47;3.73;;;13.80;10.10;;;;;;5093041;28;20190;-81
2023/09/24 01:36:32;;;;;;;6.20;3.40;;;13.70;12.60;;;;;;5095737;28;20176;-79
2023/09/24 01:38:58;;;;;;;6.57;3.70;;;13.60;16.90;;;;;;5097071;28;20544;-82
2023/09/24 01:41:25;;;;;;;7.43;3.50;;;13.60;19.50;;;;;;5100712;28;20208;-81
2023/09/24 01:43:52;;;;;;;5.83;3.47;;;13.60;19.50;;;;;;5097378;28;20212;-82
2023/09/24 01:46:20;;;;;;;6.80;3.77;;;13.70;19.20;;;;;;5093861;28;20169;-81
2023/09/24 01:48:51;;;;;;;6.93;3.47;;;13.70;17.30;;;;;;5097693;28;20211;-82
2023/09/24 01:51:17;;;;;;;5.37;3.30;;;13.70;17.70;;;;;;5096644;28;20168;-83
2023/09/24 01:53:42;;;;;;;6.90;3.30;;;13.80;16.40;;;;;;5093309;28;20198;-82
2023/09/24 01:56:09;;;;;;;6.73;3.63;;;13.80;15.20;;;;;;5095938;28;20254;-82
2023/09/24 01:58:38;;;;;;;6.23;3.40;;;13.80;13.50;;;;;;5098456;28;20160;-81
2023/09/24 02:01:06;;;;;;;7.63;3.17;;;13.90;12.10;;;;;;5095281;28;20191;-82
2023/09/24 02:03:32;;;;;;;5.53;2.97;;;13.90;12.20;;;;;;5097667;28;20165;-82
2023/09/24 02:05:58;;;;;;;5.97;3.37;;;13.80;5.60;;;;;;5095195;28;20188;-82
2023/09/24 02:08:24;;;;;;;6.67;3.30;;;13.80;7.60;;;;;;5096488;28;20209;-83
2023/09/24 02:10:50;;;;;;;8.77;3.57;;;13.80;10.40;;;;;;5096390;28;20205;-82
2023/09/24 02:13:15;;;;;;;6.83;3.27;;;13.80;7.90;;;;;;5095513;28;20180;-83
2023/09/24 02:15:46;;;;;;;5.33;3.20;;;13.70;11.40;;;;;;5096174;28;20212;-84
2023/09/24 02:18:12;;;;;;;5.87;3.07;;;13.60;14.70;;;;;;5097505;28;20259;-82
2023/09/24 02:20:41;;;;;;;7.17;3.80;;;13.60;15.80;;;;;;5094660;28;20234;-82
2023/09/24 02:23:08;;;;;;;8.60;3.47;;;13.60;14.40;;;;;;5096820;28;20163;-81
2023/09/24 02:25:36;;;;;;;8.70;3.63;;;13.60;13.50;;;;;;5094322;28;20292;-84
2023/09/24 02:28:02;;;;;;;6.40;3.57;;;13.60;13.90;;;;;;5097924;28;20211;-81
2023/09/24 02:30:29;;;;;;;9.27;3.97;;;13.50;16.00;;;;;;5096704;28;20179;-82
2023/09/24 02:32:59;;;;;;;7.30;3.43;;;13.30;18.90;;;;;;5094679;28;20234;-82
2023/09/24 02:35:26;;;;;;;7.87;3.70;;;13.30;24.00;;;;;;5094933;28;20171;-82
2023/09/24 02:37:52;;;;;;;6.87;3.83;;;13.40;23.50;;;;;;5095150;28;20219;-82
2023/09/24 02:40:23;;;;;;;5.97;3.23;;;13.40;23.30;;;;;;5095222;28;20163;-81
2023/09/24 02:42:57;;;;;;;7.73;3.67;;;13.50;23.30;;;;;;5095650;28;20186;-82
2023/09/24 02:45:23;;;;;;;7.17;3.73;;;13.50;23.80;;;;;;5095657;28;20203;-82
2023/09/24 02:47:50;;;;;;;9.20;3.73;;;13.50;22.80;;;;;;5094526;28;20326;-82
2023/09/24 02:50:17;;;;;;;7.33;3.70;;;13.50;21.50;;;;;;5095055;28;20176;-82
2023/09/24 02:52:45;;;;;;;4.97;3.37;;;13.50;22.50;;;;;;5095985;28;20219;-83
2023/09/24 02:55:15;;;;;;;7.07;3.70;;;13.50;22.40;;;;;;5096318;28;20168;-83
2023/09/24 02:57:44;;;;;;;5.87;3.47;;;13.50;19.70;;;;;;5095888;28;20175;-82
2023/09/24 03:00:15;;;;;;;8.47;3.73;;;13.50;19.40;;;;;;5094892;28;20630;-82
2023/09/24 03:02:41;;;;;;;7.50;3.47;;;13.50;19.40;;;;;;5095757;28;20168;-82
2023/09/24 03:05:11;;;;;;;7.57;3.70;;;13.60;19.40;;;;;;5095986;28;20259;-82
2023/09/24 03:07:44;;;;;;;6.47;3.40;;;13.60;18.40;;;;;;5094216;28;20235;-82
2023/09/24 03:10:13;;;;;;;7.53;3.67;;;13.60;17.10;;;;;;5094667;28;20221;-82
2023/09/24 03:12:43;;;;;;;5.23;2.97;;;13.60;18.00;;;;;;5095431;28;20177;-82
2023/09/24 03:15:12;;;;;;;8.03;3.67;;;13.60;18.20;;;;;;5096410;28;20184;-82
2023/09/24 03:17:40;;;;;;;8.30;3.60;;;13.50;19.70;;;;;;5094972;28;20236;-80
2023/09/24 03:20:19;;;;;;;8.47;3.90;;;13.50;20.10;;;;;;5094946;28;20589;-80
2023/09/24 03:22:48;;;;;;;7.30;3.67;;;13.50;22.30;;;;;;5097083;28;20187;-83
2023/09/24 03:25:25;;;;;;;9.57;3.30;;;13.50;20.10;;;;;;5098295;28;20182;-82
2023/09/24 03:27:53;;;;;;;6.30;3.50;;;13.60;16.80;;;;;;5096776;28;20324;-81
2023/09/24 03:30:19;;;;;;;6.43;3.10;;;13.50;15.00;;;;;;5099464;28;20168;-82
2023/09/24 03:32:49;;;;;;;7.57;3.27;;;13.50;18.20;;;;;;5106840;28;20240;-81
2023/09/24 03:35:19;;;;;;;9.33;3.73;;;13.40;21.40;;;;;;5105402;28;20172;-82
2023/09/24 03:37:45;;;;;;;7.23;3.23;;;13.40;24.00;;;;;;5105594;28;20156;-82
2023/09/24 03:40:22;;;;;;;7.50;3.53;;;13.50;23.10;;;;;;5104551;28;20172;-83
2023/09/24 03:42:48;;;;;;;8.23;3.13;;;13.50;21.30;;;;;;5105167;28;20160;-83
2023/09/24 03:45:16;;;;;;;7.97;3.40;;;13.50;22.00;;;;;;5101797;28;20604;-82
2023/09/24 03:47:42;;;;;;;6.77;3.33;;;13.50;22.80;;;;;;5106910;28;20296;-82
2023/09/24 03:50:13;;;;;;;6.13;3.97;;;13.50;22.50;;;;;;5101807;28;20221;-83
2023/09/24 03:52:43;;;;;;;9.63;4.17;;;13.60;20.90;;;;;;5109768;28;20182;-83
2023/09/24 03:55:09;;;;;;;5.37;3.40;;;13.60;19.20;;;;;;5112063;28;20188;-81
2023/09/24 03:57:36;;;;;;;7.27;3.90;;;13.60;17.60;;;;;;5110680;28;20169;-80
2023/09/24 04:00:11;;;;;;;8.60;3.70;;;13.60;15.90;;;;;;5104884;28;20262;-82
2023/09/24 04:02:39;;;;;;;6.90;3.63;;;13.50;13.00;;;;;;5106937;28;20254;-83
2023/09/24 04:05:08;;;;;;;5.97;3.27;;;13.40;14.90;;;;;;5109793;28;20180;-81
2023/09/24 04:07:37;;;;;;;7.77;3.43;;;13.20;16.70;;;;;;5107520;28;20205;-81
2023/09/24 04:10:04;;;;;;;8.50;4.13;;;13.20;20.10;;;;;;5107725;28;20187;-83
2023/09/24 04:12:33;;;;;;;7.00;3.60;;;13.10;21.10;;;;;;5102676;28;20178;-81
2023/09/24 04:15:00;;;;;;;8.97;3.97;;;13.20;21.70;;;;;;5097620;28;20189;-81
2023/09/24 04:17:26;;;;;;;8.20;3.13;;;13.30;19.70;;;;;;5094413;28;20175;-81
2023/09/24 04:19:54;;;;;;;8.33;3.67;;;13.20;20.50;;;;;;5096597;28;20180;-81
2023/09/24 04:22:26;;;;;;;6.53;2.93;;;13.20;20.80;;;;;;5101744;28;20160;-82
2023/09/24 04:24:53;;;;;;;5.60;3.17;;;13.20;20.90;;;;;;5098003;28;20255;-82
2023/09/24 04:27:21;;;;;;;6.33;3.23;;;13.10;21.60;;;;;;5096132;28;20187;-82
2023/09/24 04:29:49;;;;;;;8.87;3.40;;;13.20;22.30;;;;;;5093770;28;20179;-82
2023/09/24 04:32:18;;;;;;;11.93;3.67;;;13.30;20.00;;;;;;5095801;28;20164;-81
2023/09/24 04:34:45;;;;;;;7.17;3.17;;;13.40;16.20;;;;;;5095365;28;20662;-81
2023/09/24 04:37:12;;;;;;;7.63;4.17;;;13.50;12.20;;;;;;5094862;28;20236;-82
2023/09/24 04:39:38;;;;;;;7.87;3.30;;;13.50;10.10;;;;;;5093239;28;20160;-79
2023/09/24 04:42:06;;;;;;;8.90;3.47;;;13.50;8.10;;;;;;5094759;28;20650;-81
2023/09/24 04:44:35;;;;;;;8.37;3.00;;;13.50;5.50;;;;;;5093075;28;20631;-82
2023/09/24 04:47:00;;;;;;;5.37;2.83;;;13.40;7.00;;;;;;5093359;28;20248;-82
2023/09/24 04:49:30;;;;;;;6.90;3.57;;;13.30;9.40;;;;;;5093728;28;20174;-84
2023/09/24 04:51:55;;;;;;;5.87;2.93;;;13.20;14.70;;;;;;5094087;28;20184;-81
2023/09/24 04:54:22;;;;;;;6.93;3.20;;;13.10;17.50;;;;;;5092332;28;20183;-82
2023/09/24 04:56:49;;;;;;;8.80;2.83;;;13.10;20.50;;;;;;5092623;28;20171;-79
2023/09/24 04:59:15;;;;;;;7.07;2.80;;;13.10;21.00;;;;;;5092439;28;20533;-81
2023/09/24 05:01:40;;;;;;;6.27;3.00;;;13.10;17.10;;;;;;5094531;28;20170;-79
2023/09/24 05:04:07;;;;;;;6.33;2.63;;;13.20;14.20;;;;;;5092903;28;20206;-82
2023/09/24 05:06:33;;;;;;;5.00;2.70;;;13.20;12.70;;;;;;5093256;28;20166;-82
2023/09/24 05:08:59;;;;;;;5.43;2.50;;;13.10;15.10;;;;;;5095062;28;20271;-82
2023/09/24 05:11:25;;;;;;;8.57;3.00;;;13.00;16.60;;;;;;5093232;28;20256;-80
2023/09/24 05:13:50;;;;;;;6.00;2.63;;;12.90;18.60;;;;;;5094348;28;20165;-82
2023/09/24 05:16:16;;;;;;;7.60;2.27;;;12.70;22.70;;;;;;5103273;28;20692;-83
2023/09/24 05:18:42;;;;;;;8.67;3.07;;;12.70;25.80;;;;;;5113474;28;20214;-81
2023/09/24 05:21:15;;;;;;;6.73;2.80;;;12.70;27.60;;;;;;5111955;28;20266;-81
2023/09/24 05:23:41;;;;;;;6.13;2.53;;;12.60;29.30;;;;;;5113850;28;20171;-82
2023/09/24 05:26:12;;;;;;;5.43;2.53;;;12.50;32.30;;;;;;5115416;28;20215;-81
2023/09/24 05:28:38;;;;;;;4.60;2.70;;;12.50;35.70;;;;;;5115540;28;20693;-82
2023/09/24 05:31:03;;;;;;;6.67;2.67;;;12.50;38.30;;;;;;5117699;28;20194;-82
2023/09/24 05:33:29;;;;;;;7.20;2.60;;;12.40;40.40;;;;;;5119204;28;20245;-82
2023/09/24 05:35:55;;;;;;;5.97;2.70;;;12.50;42.70;;;;;;5118614;28;20171;-82
2023/09/24 05:38:21;;;;;;;6.43;2.70;;;12.50;40.50;;;;;;5117491;28;20176;-82
2023/09/24 05:40:47;;;;;;;7.70;2.83;;;12.50;39.20;;;;;;5115519;28;20166;-82
2023/09/24 05:43:15;;;;;;;6.60;3.20;;;12.60;40.30;;;;;;5118097;28;20182;-82
2023/09/24 05:45:48;;;;;;;6.87;2.60;;;12.60;41.70;;;;;;5116498;28;20178;-81
2023/09/24 05:48:15;;;;;;;7.70;2.70;;;12.50;42.10;;;;;;5116889;28;20807;-83
2023/09/24 05:50:42;;;;;;;7.43;2.70;;;12.50;44.10;;;;;;5115528;28;20563;-81
2023/09/24 05:53:10;;;;;;;8.67;2.80;;;12.60;42.80;;;;;;5104003;28;20230;-83
2023/09/24 05:55:36;;;;;;;6.10;2.93;;;12.70;41.40;;;;;;5105790;28;20194;-81
2023/09/24 05:58:04;;;;;;;7.10;2.87;;;12.60;42.20;;;;;;5097824;28;20174;-83
2023/09/24 06:00:31;;;;;;;5.13;2.70;;;12.70;42.50;;;;;;5096409;28;20193;-80
2023/09/24 06:02:57;;;;;;;6.20;2.43;;;12.80;41.90;;;;;;5103840;28;20211;-83
2023/09/24 06:05:23;;;;;;;6.90;2.63;;;12.70;42.80;;;;;;5115501;28;20626;-83
2023/09/24 06:07:50;;;;;;;6.73;3.17;;;12.80;39.10;;;;;;5117396;28;20222;-81
2023/09/24 06:10:16;;;;;;;5.63;2.80;;;12.80;39.00;;;;;;5118230;28;20179;-82
2023/09/24 06:12:41;;;;;;;6.50;2.90;;;12.80;38.20;;;;;;5115745;28;20590;-83
2023/09/24 06:15:10;;;;;;;6.73;3.33;;;12.80;40.40;;;;;;5100276;28;20652;-82
2023/09/24 06:17:36;;;;;;;7.37;3.23;;;12.90;38.00;;;;;;5096962;28;20180;-83
2023/09/24 06:20:03;;;;;;;8.00;3.57;;;13.00;38.60;;;;;;5099060;28;20561;-81
2023/09/24 06:22:28;;;;;;;9.57;3.80;;;13.10;35.00;;;;;;5100738;28;20175;-82
2023/09/24 06:24:54;;;;;;;6.83;3.23;;;13.00;35.50;;;;;;5097148;28;20176;-82
2023/09/24 06:27:21;;;;;;;8.30;3.60;;;13.00;38.40;;;;;;5098268;28;20203;-82
2023/09/24 06:29:47;;;;;;;7.87;3.60;;;13.10;37.20;;;;;;5095895;28;20172;-81
2023/09/24 06:32:13;;;;;;;9.97;3.70;;;13.30;33.00;;;;;;5114175;28;20179;-81
2023/09/24 06:34:39;;;;;;;9.47;3.93;;;13.50;29.50;;;;;;5114153;28;20191;-83
2023/09/24 06:37:05;;;;;;;8.57;3.63;;;13.50;26.90;;;;;;5099222;28;20171;-82
2023/09/24 06:39:33;;;;;;;7.50;3.97;;;13.50;27.30;;;;;;5099170;28;20186;-82
2023/09/24 06:42:00;;;;;;;11.73;4.37;;;13.70;24.70;;;;;;5098557;28;20180;-81
2023/09/24 06:44:26;;;;;;;9.53;3.87;;;13.80;21.10;;;;;;5097674;28;20186;-82
2023/09/24 06:46:53;;;;;;;8.07;4.57;;;13.90;18.70;;;;;;5096302;28;20180;-83
2023/09/24 06:49:19;;;;;;;9.07;4.33;;;13.90;17.30;;;;;;5097977;28;20176;-83
2023/09/24 06:51:45;;;;;;;8.90;4.60;;;13.90;18.70;;;;;;5106629;28;20179;-83
2023/09/24 06:54:11;;;;;;;10.67;4.80;;;14.00;15.90;;;;;;5116197;28;20220;-81
2023/09/24 06:56:36;;;;;;;7.07;4.37;;;14.10;13.30;;;;;;5115297;28;20171;-83
2023/09/24 06:59:09;;;;;;;8.20;4.53;;;14.10;14.20;;;;;;5115911;28;20174;-84
2023/09/24 07:01:38;;;;;;;6.87;3.90;;;14.20;10.10;;;;;;5115246;28;20175;-83
2023/09/24 07:04:06;;;;;;;10.43;4.70;;;14.20;11.40;;;;;;5115442;28;20173;-84
2023/09/24 07:06:32;;;;;;;10.37;4.97;;;14.20;13.00;;;;;;5115439;28;20173;-82
2023/09/24 07:08:58;;;;;;;9.10;5.27;;;14.30;12.60;;;;;;5105227;28;20294;-82
2023/09/24 07:11:36;;;;;;;9.10;4.50;;;14.30;13.00;;;;;;5095509;28;20176;-80
2023/09/24 07:14:04;;;;;;;8.87;4.87;;;14.30;12.20;;;;;;5095292;28;20168;-82
2023/09/24 07:16:30;;;;;;;9.73;4.80;;;14.20;13.20;;;;;;5094513;28;20181;-83
2023/09/24 07:18:57;;;;;;;8.07;4.70;;;14.20;15.10;;;;;;5094847;28;20179;-84
2023/09/24 07:21:31;;;;;;;9.27;4.43;;;14.20;15.30;;;;;;5094056;28;20202;-81
2023/09/24 07:23:58;;;;;;;8.07;4.57;;;14.20;14.50;;;;;;5095251;28;20307;-83
2023/09/24 07:26:25;;;;;;;7.03;4.40;;;14.30;14.30;;;;;;5095845;28;20172;-81
2023/09/24 07:28:52;;;;;;;9.97;4.77;;;14.40;11.30;;;;;;5094583;28;20203;-83
2023/09/24 07:31:21;;;;;;;7.70;4.60;;;14.50;10.20;;;;;;5094109;28;20241;-82
2023/09/24 07:33:52;;;;;;;7.93;4.30;;;14.60;8.50;;;;;;5098420;28;20531;-81
2023/09/24 07:36:18;;;;;;;8.70;4.40;;;14.70;7.10;;;;;;5110481;28;20266;-82
2023/09/24 07:38:45;;;;;;;8.90;4.23;;;14.70;5.90;;;;;;5106389;28;20699;-81
2023/09/24 07:41:11;;;;;;;10.30;4.87;;;14.90;3.80;;;;;;5104006;28;20167;-81
2023/09/24 07:43:38;;;;;;;8.87;3.83;;;14.90;1.50;;;;;;5108843;28;20175;-81
2023/09/24 07:46:04;;;;;;;7.97;4.73;;;15.00;1.10;;;;;;5115097;28;20182;-83
2023/09/24 07:48:31;;;;;;;10.47;3.87;;;15.20;1.00;;;;;;5115474;28;20222;-81
2023/09/24 07:50:57;;;;;;;8.87;3.90;;;15.30;1.00;;;;;;5113678;28;20174;-82
2023/09/24 07:53:23;;;;;;;6.67;3.90;;;15.40;1.00;;;;;;5115715;28;20557;-85
2023/09/24 07:56:08;;;;;;;6.87;3.77;;;15.40;1.00;;;;;;5113831;28;20186;-84
2023/09/24 07:58:34;;;;;;;7.13;3.80;;;15.50;1.00;;;;;;5108380;28;20203;-82
2023/09/24 08:01:03;;;;;;;6.87;3.43;;;15.50;1.00;;;;;;5104733;28;20237;-83
2023/09/24 08:03:29;;;;;;;6.83;3.77;;;15.70;1.00;;;;;;5112938;28;20194;-84
2023/09/24 08:05:55;;;;;;;7.07;3.37;;;15.70;1.00;;;;;;5113942;28;20175;-82
2023/09/24 08:08:21;;;;;;;7.43;3.50;;;15.80;1.00;;;;;;5115531;28;20233;-83
2023/09/24 08:10:47;;;;;;;7.90;3.70;;;15.90;1.00;;;;;;5112232;28;20775;-83
2023/09/24 08:13:13;;;;;;;6.70;3.27;;;16.00;1.00;;;;;;5113562;28;20175;-82
2023/09/24 08:15:39;;;;;;;6.00;3.40;;;16.00;1.00;;;;;;5115766;28;20187;-82
2023/09/24 08:18:09;;;;;;;6.90;3.70;;;16.20;1.00;;;;;;5120448;28;20180;-81
2023/09/24 08:20:36;;;;;;;8.20;3.00;;;16.30;1.00;;;;;;5119262;28;20166;-82
2023/09/24 08:23:03;;;;;;;6.57;3.17;;;16.40;1.00;;;;;;5123786;28;20162;-81
2023/09/24 08:25:30;;;;;;;8.73;3.03;;;16.50;1.00;;;;;;5117412;28;20172;-82
2023/09/24 08:27:56;;;;;;;5.83;2.67;;;16.40;1.00;;;;;;5120508;28;20195;-84
2023/09/24 08:30:21;;;;;;;4.93;2.57;;;16.40;1.00;;;;;;5119031;28;20215;-83
2023/09/24 08:32:47;;;;;;;4.63;2.77;;;16.50;1.00;;;;;;5121846;28;20685;-81
2023/09/24 08:35:14;;;;;;;6.57;2.40;;;16.60;1.00;;;;;;5117962;28;20182;-86
2023/09/24 08:37:39;;;;;;;3.93;2.23;;;16.70;1.00;;;;;;5119347;28;20380;-82
2023/09/24 08:40:09;;;;;;;8.20;2.33;;;16.90;1.00;;;;;;5117887;28;20724;-85
2023/09/24 08:42:37;;;;;;;5.97;2.50;;;16.90;1.00;;;;;;5118031;28;20192;-82
2023/09/24 08:45:14;;;;;;;8.07;2.37;;;17.00;1.00;;;;;;5094762;28;20159;-82
2023/09/24 08:47:40;;;;;;;4.80;2.60;;;17.10;1.00;;;;;;5092142;28;20490;-82
2023/09/24 08:50:08;;;;;;;7.03;2.50;;;17.20;1.00;;;;;;5093236;28;20590;-81
2023/09/24 08:52:39;;;;;;;6.07;2.50;;;17.30;1.00;;;;;;5093148;28;20762;-82
2023/09/24 08:55:07;;;;;;;6.50;2.27;;;17.30;1.00;;;;;;5094158;28;20168;-82
2023/09/24 08:57:34;;;;;;;6.63;2.10;;;17.30;1.00;;;;;;5098499;28;20198;-82
2023/09/24 09:00:00;;;;;;;4.03;1.67;;;17.40;1.00;;;;;;5093412;28;20163;-80
2023/09/24 09:02:26;;;;;;;3.73;1.80;;;17.40;1.00;;;;;;5094421;28;20719;-83
2023/09/24 09:04:54;;;;;;;3.70;2.33;;;17.50;1.00;;;;;;5093491;28;20173;-82
2023/09/24 09:07:20;;;;;;;3.70;1.97;;;17.60;1.00;;;;;;5094448;28;20224;-81
2023/09/24 09:09:59;;;;;;;5.87;2.00;;;17.80;1.00;;;;;;5094704;28;20182;-82
2023/09/24 09:12:26;;;;;;;6.17;2.00;;;17.90;1.00;;;;;;5099553;28;20188;-82
2023/09/24 09:14:52;;;;;;;8.43;2.03;;;18.00;1.00;;;;;;5112980;28;20638;-81
2023/09/24 09:17:18;;;;;;;3.97;2.00;;;18.10;1.00;;;;;;5114864;28;20667;-83
2023/09/24 09:19:49;;;;;;;4.03;1.90;;;18.10;1.00;;;;;;5113649;28;20175;-81
2023/09/24 09:22:22;;;;;;;4.00;2.17;;;18.20;1.00;;;;;;5114631;28;20534;-85
2023/09/24 09:25:09;;;;;;;3.57;2.00;;;18.40;1.00;;;;;;5112835;28;20466;-81
2023/09/24 09:27:42;;;;;;;4.70;2.20;;;18.40;1.00;;;;;;5112066;28;20223;-82
2023/09/24 09:30:12;;;;;;;4.27;2.13;;;18.50;1.00;;;;;;5115111;28;20161;-82
2023/09/24 09:32:38;;;;;;;5.33;2.27;;;18.40;1.00;;;;;;5104846;28;20169;-80
2023/09/24 09:35:05;;;;;;;5.20;1.83;;;18.50;1.00;;;;;;5116439;28;20572;-84
2023/09/24 09:37:32;;;;;;;5.67;1.87;;;18.50;1.00;;;;;;5106779;28;20169;-82
2023/09/24 09:39:57;;;;;;;4.97;2.10;;;18.50;1.00;;;;;;5102403;28;20190;-82
2023/09/24 09:42:29;;;;;;;4.47;2.00;;;18.50;1.00;;;;;;5098270;28;20840;-83
2023/09/24 09:45:01;;;;;;;4.57;2.00;;;18.50;1.00;;;;;;5093589;28;20168;-82
2023/09/24 09:47:28;;;;;;;4.50;2.07;;;18.60;1.00;;;;;;5093872;28;20230;-84
2023/09/24 09:50:01;;;;;;;4.03;1.83;;;18.80;1.00;;;;;;5095694;28;20164;-83
2023/09/24 09:52:32;;;;;;;4.37;2.00;;;19.00;1.00;;;;;;5095882;28;20254;-84
2023/09/24 09:55:03;;;;;;;3.70;2.00;;;19.00;1.00;;;;;;5097509;28;20269;-84
2023/09/24 09:57:32;;;;;;;5.23;1.97;;;19.00;1.00;;;;;;5094098;28;20235;-85
2023/09/24 10:00:00;;;;;;;5.40;1.80;;;19.00;1.00;;;;;;5093067;28;20174;-81
2023/09/24 10:02:27;;;;;;;4.50;1.90;;;19.00;1.00;;;;;;5091862;28;20176;-82
2023/09/24 10:04:56;;;;;;;4.40;2.00;;;19.10;1.00;;;;;;5092018;28;20176;-83
2023/09/24 10:07:22;;;;;;;5.50;2.40;;;19.00;1.00;;;;;;5112361;28;20190;-83
2023/09/24 10:09:49;;;;;;;4.23;2.03;;;19.10;1.00;;;;;;5112061;28;20167;-80
2023/09/24 10:12:36;;;;;;;3.63;1.87;;;19.10;1.00;;;;;;5103917;28;20197;-83
2023/09/24 10:15:25;;;;;;;6.87;2.30;;;19.00;1.00;;;;;;5101361;28;20176;-83
2023/09/24 10:18:09;;;;;;;4.53;2.17;;;19.00;1.00;;;;;;5107839;28;20179;-82
2023/09/24 10:20:50;;;;;;;5.00;1.77;;;19.20;1.00;;;;;;5108686;28;20197;-82
2023/09/24 10:23:31;;;;;;;4.43;1.83;;;19.30;1.00;;;;;;5105063;28;20187;-81
2023/09/24 10:26:03;;;;;;;5.20;1.87;;;19.30;1.00;;;;;;5094851;28;20167;-81
2023/09/24 10:28:49;;;;;;;4.27;2.00;;;19.40;1.00;;;;;;5108934;28;20205;-82
2023/09/24 10:31:17;;;;;;;5.47;1.93;;;19.30;1.00;;;;;;5114527;28;20519;-82
2023/09/24 10:34:02;;;;;;;4.80;1.90;;;19.40;1.00;;;;;;5117123;28;20644;-82
2023/09/24 10:36:30;;;;;;;5.67;2.00;;;19.50;1.00;;;;;;5118031;28;20167;-87
2023/09/24 10:39:02;;;;;;;4.87;2.10;;;19.60;1.00;;;;;;5112308;28;20181;-84
2023/09/24 10:41:28;;;;;;;4.37;1.90;;;19.70;1.00;;;;;;5112197;28;20201;-83
2023/09/24 10:44:22;;;;;;;3.87;1.70;;;19.80;1.00;;;;;;5124033;28;20167;-83
2023/09/24 10:46:48;;;;;;;6.30;1.77;;;19.80;99.90;;;;;;5103952;28;20267;-81
2023/09/24 10:49:18;;;;;;;4.63;1.73;;;19.80;99.90;;;;;;5103251;28;20239;-83
2023/09/24 10:51:44;;;;;;;4.30;1.97;;;19.70;99.90;;;;;;5105241;28;20232;-83
2023/09/24 10:54:15;;;;;;;4.33;1.73;;;19.60;99.90;;;;;;5106321;28;20201;-84
2023/09/24 10:56:47;;;;;;;4.30;1.60;;;19.70;99.90;;;;;;5105783;28;20176;-83
2023/09/24 10:59:14;;;;;;;3.37;1.33;;;19.90;99.90;;;;;;5115626;28;20639;-82
2023/09/24 11:01:40;;;;;;;4.70;1.77;;;19.80;99.90;;;;;;5125390;28;20168;-83
2023/09/24 11:04:11;;;;;;;6.07;1.90;;;19.80;99.90;;;;;;5126741;28;20267;-80
2023/09/24 11:06:37;;;;;;;4.93;1.63;;;19.80;99.90;;;;;;5122726;28;20226;-85
2023/09/24 11:09:16;;;;;;;3.80;1.43;;;19.80;99.90;;;;;;5119845;28;20204;-88
2023/09/24 11:11:43;;;;;;;2.77;1.40;;;19.80;99.90;;;;;;5114345;28;20183;-81
2023/09/24 11:14:23;;;;;;;4.10;1.47;;;19.90;99.90;;;;;;5114279;28;20221;-85
2023/09/24 11:16:54;;;;;;;5.37;1.80;;;20.00;99.90;;;;;;5106873;28;20203;-81
2023/09/24 11:19:46;;;;;;;2.37;1.33;;;20.10;99.90;;;;;;5108203;28;20258;-80
2023/09/24 11:22:19;;;;;;;3.27;1.40;;;20.20;99.90;;;;;;5104885;28;20164;-81
2023/09/24 11:25:06;;;;;;;4.00;1.67;;;20.20;99.90;;;;;;5095392;28;20684;-83
2023/09/24 11:27:33;;;;;;;3.77;1.80;;;20.40;99.90;;;;;;5092127;28;20220;-80
2023/09/24 11:30:00;;;;;;;3.03;1.37;;;20.50;1.00;;;;;;5096278;28;20260;-81
2023/09/24 11:32:27;;;;;;;4.17;1.97;;;20.40;1.00;;;;;;5101900;28;20184;-81
2023/09/24 11:35:25;;;;;;;4.77;1.70;;;20.30;1.00;;;;;;5110172;28;20279;-83
2023/09/24 11:38:01;;;;;;;4.57;1.90;;;20.40;57.30;;;;;;5089677;28;20188;-81
2023/09/24 11:40:32;;;;;;;3.20;1.47;;;20.50;1.00;;;;;;5114325;28;20200;-83
2023/09/24 11:42:58;;;;;;;2.47;1.30;;;20.40;99.90;;;;;;5114514;28;20173;-81
2023/09/24 11:45:50;;;;;;;3.47;1.60;;;20.50;99.90;;;;;;5114529;28;20251;-81
2023/09/24 11:48:18;;;;;;;2.57;1.53;;;20.50;1.00;;;;;;5113944;28;20685;-81
2023/09/24 11:50:58;;;;;;;3.97;1.50;;;20.60;1.00;;;;;;5114893;28;20165;-81
2023/09/24 11:53:25;;;;;;;3.70;1.77;;;20.60;95.70;;;;;;5113785;28;20254;-81
2023/09/24 11:55:53;;;;;;;4.53;1.53;;;20.60;1.00;;;;;;5113528;28;20713;-82
2023/09/24 11:58:26;;;;;;;4.20;1.87;;;20.70;99.90;;;;;;5114556;28;20169;-82
2023/09/24 12:00:53;;;;;;;4.83;1.67;;;20.80;9.50;;;;;;5112471;28;20258;-81
2023/09/24 12:03:20;;;;;;;3.07;1.30;;;20.70;99.90;;;;;;5111106;28;20540;-82
2023/09/24 12:05:47;;;;;;;3.57;1.60;;;20.60;99.90;;;;;;5113384;28;20193;-80
2023/09/24 12:08:13;;;;;;;2.53;1.30;;;20.80;1.00;;;;;;5112494;28;20217;-81
2023/09/24 12:10:41;;;;;;;2.43;1.37;;;20.80;78.60;;;;;;5112388;28;20170;-81
2023/09/24 12:13:10;;;;;;;4.33;1.30;;;20.90;1.00;;;;;;5111771;28;21070;-82
2023/09/24 12:15:36;;;;;;;3.23;1.20;;;20.90;1.00;;;;;;5115102;28;20169;-80
2023/09/24 12:18:04;;;;;;;2.40;1.50;;;20.90;99.90;;;;;;5112818;28;20171;-83
2023/09/24 12:20:34;;;;;;;2.67;1.60;;;20.80;1.00;;;;;;5112425;28;20171;-81
2023/09/24 12:23:03;;;;;;;3.10;1.43;;;21.00;1.00;;;;;;5114618;28;20180;-81
2023/09/24 12:25:30;;;;;;;2.07;1.20;;;21.10;1.00;;;;;;5114393;28;20163;-84
2023/09/24 12:27:56;;;;;;;3.73;1.67;;;21.10;99.90;;;;;;5113313;28;20228;-82
2023/09/24 12:30:23;;;;;;;3.03;1.83;;;21.00;1.00;;;;;;5113654;28;20169;-83
2023/09/24 12:32:48;;;;;;;3.63;1.70;;;20.90;99.90;;;;;;5112168;28;20271;-82
2023/09/24 12:35:26;;;;;;;3.20;1.60;;;20.90;99.90;;;;;;5115309;28;20181;-82
2023/09/24 12:37:55;;;;;;;3.37;1.50;;;20.90;62.50;;;;;;5092629;28;20268;-81
2023/09/24 12:40:25;;;;;;;3.10;1.53;;;21.00;1.00;;;;;;5098422;28;20174;-83
2023/09/24 12:42:51;;;;;;;2.73;1.43;;;20.80;1.00;;;;;;5094385;28;20175;-82
2023/09/24 12:45:17;;;;;;;4.33;1.53;;;20.80;1.00;;;;;;5076859;28;20553;-83
2023/09/24 12:47:43;;;;;;;2.07;1.17;;;20.80;99.90;;;;;;5098352;28;20704;-82
2023/09/24 12:50:11;;;;;;;2.90;1.57;;;20.90;1.00;;;;;;5095907;28;20228;-83
2023/09/24 12:52:44;;;;;;;3.13;1.60;;;20.90;1.00;;;;;;5095264;28;20238;-83
2023/09/24 12:55:12;;;;;;;3.80;1.87;;;20.90;99.90;;;;;;5093531;28;20231;-81
2023/09/24 12:57:39;;;;;;;3.27;1.90;;;21.00;99.90;;;;;;5094210;28;20181;-83